createdAt,value
2023-04-01T00:01:10.733Z,9.6
2023-04-01T00:02:27.058Z,9.6
2023-04-01T00:03:43.358Z,9.6
2023-04-01T00:04:59.648Z,9.6
2023-04-01T00:06:15.918Z,9.7
2023-04-01T00:07:32.245Z,9.7
2023-04-01T00:08:48.499Z,9.7
2023-04-01T00:10:04.824Z,9.6
2023-04-01T00:11:21.117Z,9.6
2023-04-01T00:12:37.388Z,9.7
2023-04-01T00:13:53.712Z,9.7
2023-04-01T00:15:10.010Z,9.7
2023-04-01T00:16:25.287Z,9.6
2023-04-01T00:17:41.604Z,9.6
2023-04-01T00:18:57.903Z,9.6
2023-04-01T00:20:14.156Z,9.6
2023-04-01T00:21:30.486Z,9.7
2023-04-01T00:22:46.782Z,9.6
2023-04-01T00:24:03.041Z,9.7
2023-04-01T00:25:19.382Z,9.7
2023-04-01T00:26:35.628Z,9.7
2023-04-01T00:27:51.962Z,9.7
2023-04-01T00:29:08.221Z,9.7
2023-04-01T00:30:24.546Z,9.7
2023-04-01T00:31:40.802Z,9.7
2023-04-01T00:32:56.147Z,9.7
2023-04-01T00:34:12.425Z,9.7
2023-04-01T00:35:28.702Z,9.7
2023-04-01T00:36:45.002Z,9.7
2023-04-01T00:38:01.331Z,9.7
2023-04-01T00:39:17.617Z,9.7
2023-04-01T00:40:33.918Z,9.7
2023-04-01T00:41:50.170Z,9.7
2023-04-01T00:43:06.463Z,9.7
2023-04-01T00:44:22.804Z,9.7
2023-04-01T00:45:39.068Z,9.7
2023-04-01T00:46:55.345Z,9.7
2023-04-01T00:48:11.646Z,9.6
2023-04-01T00:49:26.968Z,9.7
2023-04-01T00:50:43.257Z,9.7
2023-04-01T00:51:59.590Z,9.7
2023-04-01T00:53:15.868Z,9.6
2023-04-01T00:54:32.126Z,9.6
2023-04-01T00:55:48.433Z,9.6
2023-04-01T00:57:03.780Z,9.6
2023-04-01T00:58:20.072Z,9.6
2023-04-01T00:59:36.341Z,9.6
2023-04-01T01:00:52.618Z,9.6
2023-04-01T01:02:08.963Z,9.6
2023-04-01T01:03:25.213Z,9.6
2023-04-01T01:04:41.499Z,9.6
2023-04-01T01:05:57.793Z,9.6
2023-04-01T01:07:14.127Z,9.6
2023-04-01T01:08:30.388Z,9.6
2023-04-01T01:09:46.675Z,9.6
2023-04-01T01:11:02.970Z,9.6
2023-04-01T01:12:19.301Z,9.6
2023-04-01T01:13:34.620Z,9.6
2023-04-01T01:14:50.867Z,9.6
2023-04-01T01:16:07.167Z,9.6
2023-04-01T01:17:23.467Z,9.6
2023-04-01T01:18:39.755Z,9.6
2023-04-01T01:19:56.058Z,9.7
2023-04-01T01:21:12.380Z,9.6
2023-04-01T01:22:28.680Z,9.6
2023-04-01T01:23:44.969Z,9.6
2023-04-01T01:25:01.258Z,9.6
2023-04-01T01:26:17.524Z,9.6
2023-04-01T01:27:33.843Z,9.6
2023-04-01T01:28:50.137Z,9.6
2023-04-01T01:30:05.415Z,9.6
2023-04-01T01:31:21.746Z,9.5
2023-04-01T01:32:38.044Z,9.5
2023-04-01T01:33:54.308Z,9.5
2023-04-01T01:35:10.593Z,9.5
2023-04-01T01:36:26.922Z,9.5
2023-04-01T01:37:43.183Z,9.5
2023-04-01T01:38:59.517Z,9.5
2023-04-01T01:40:15.769Z,9.5
2023-04-01T01:41:32.066Z,9.5
2023-04-01T01:42:48.363Z,9.5
2023-04-01T01:44:04.684Z,9.5
2023-04-01T01:45:20.958Z,9.5
2023-04-01T01:46:36.264Z,9.5
2023-04-01T01:47:52.557Z,9.5
2023-04-01T01:49:08.842Z,9.5
2023-04-01T01:50:25.132Z,9.5
2023-04-01T01:51:41.441Z,9.5
2023-04-01T01:52:57.719Z,9.5
2023-04-01T01:54:14.027Z,9.5
2023-04-01T01:55:30.320Z,9.5
2023-04-01T01:56:46.600Z,9.5
2023-04-01T01:58:02.906Z,9.5
2023-04-01T01:59:19.245Z,9.5
2023-04-01T02:00:35.488Z,9.4
2023-04-01T02:01:51.783Z,9.5
2023-04-01T02:03:07.092Z,9.5
2023-04-01T02:04:23.423Z,9.5
2023-04-01T02:05:39.681Z,9.5
2023-04-01T02:06:56.007Z,9.5
2023-04-01T02:08:12.272Z,9.5
2023-04-01T02:09:28.569Z,9.5
2023-04-01T02:10:44.857Z,9.5
2023-04-01T02:12:01.148Z,9.5
2023-04-01T02:13:17.442Z,9.5
2023-04-01T02:14:33.746Z,9.5
2023-04-01T02:15:50.033Z,9.5
2023-04-01T02:17:06.325Z,9.5
2023-04-01T02:18:22.622Z,9.5
2023-04-01T02:19:37.935Z,9.5
2023-04-01T02:20:54.231Z,9.5
2023-04-01T02:22:10.525Z,9.5
2023-04-01T02:23:26.815Z,9.5
2023-04-01T02:24:43.106Z,9.5
2023-04-01T02:25:59.399Z,9.5
2023-04-01T02:27:15.708Z,9.5
2023-04-01T02:28:31.984Z,9.5
2023-04-01T02:29:48.277Z,9.5
2023-04-01T02:31:04.569Z,9.6
2023-04-01T02:32:20.866Z,9.6
2023-04-01T02:33:37.160Z,9.6
2023-04-01T02:34:53.460Z,9.6
2023-04-01T02:36:08.767Z,9.6
2023-04-01T02:37:25.069Z,9.6
2023-04-01T02:38:41.356Z,9.6
2023-04-01T02:39:57.646Z,9.6
2023-04-01T02:41:13.940Z,9.6
2023-04-01T02:42:30.239Z,9.6
2023-04-01T02:43:46.530Z,9.7
2023-04-01T02:45:02.822Z,9.7
2023-04-01T02:46:19.136Z,9.6
2023-04-01T02:47:35.420Z,9.7
2023-04-01T02:48:51.717Z,9.7
2023-04-01T02:50:08.002Z,9.7
2023-04-01T02:51:24.300Z,9.6
2023-04-01T02:52:39.609Z,9.7
2023-04-01T02:53:55.900Z,9.6
2023-04-01T02:55:12.192Z,9.6
2023-04-01T02:56:28.490Z,9.6
2023-04-01T02:57:44.785Z,9.6
2023-04-01T02:59:01.081Z,9.6
2023-04-01T03:00:17.369Z,9.6
2023-04-01T03:01:33.665Z,9.6
2023-04-01T03:02:49.967Z,9.6
2023-04-01T03:04:06.264Z,9.6
2023-04-01T03:05:22.545Z,9.6
2023-04-01T03:06:38.840Z,9.6
2023-04-01T03:07:55.129Z,9.6
2023-04-01T03:09:10.447Z,9.6
2023-04-01T03:10:26.746Z,9.6
2023-04-01T03:11:43.037Z,9.6
2023-04-01T03:12:59.325Z,9.6
2023-04-01T03:14:15.618Z,9.6
2023-04-01T03:15:31.915Z,9.6
2023-04-01T03:16:48.219Z,9.6
2023-04-01T03:18:04.515Z,9.6
2023-04-01T03:19:20.795Z,9.6
2023-04-01T03:20:37.099Z,9.6
2023-04-01T03:21:53.397Z,9.6
2023-04-01T03:23:09.688Z,9.7
2023-04-01T03:24:25.973Z,9.6
2023-04-01T03:25:41.282Z,9.6
2023-04-01T03:26:57.572Z,9.6
2023-04-01T03:28:13.866Z,9.6
2023-04-01T03:29:30.178Z,9.6
2023-04-01T03:30:46.464Z,9.6
2023-04-01T03:32:02.755Z,9.6
2023-04-01T03:33:19.041Z,9.6
2023-04-01T03:34:35.342Z,9.6
2023-04-01T03:35:51.630Z,9.6
2023-04-01T03:37:07.923Z,9.6
2023-04-01T03:38:24.224Z,9.6
2023-04-01T03:39:40.513Z,9.6
2023-04-01T03:40:56.810Z,9.6
2023-04-01T03:42:12.123Z,9.6
2023-04-01T03:43:28.412Z,9.6
2023-04-01T03:44:44.706Z,9.6
2023-04-01T03:46:01.008Z,9.6
2023-04-01T03:47:17.301Z,9.6
2023-04-01T03:48:33.587Z,9.6
2023-04-01T03:49:49.894Z,9.6
2023-04-01T03:51:06.000Z,9.6
2023-04-01T03:52:22.483Z,9.6
2023-04-01T03:53:38.764Z,9.6
2023-04-01T03:54:55.061Z,9.7
2023-04-01T03:56:11.359Z,9.6
2023-04-01T03:57:27.656Z,9.6
2023-04-01T03:58:42.972Z,9.6
2023-04-01T03:59:59.253Z,9.6
2023-04-01T04:01:15.555Z,9.6
2023-04-01T04:02:31.843Z,9.6
2023-04-01T04:03:48.132Z,9.6
2023-04-01T04:05:04.426Z,9.6
2023-04-01T04:06:20.720Z,9.6
2023-04-01T04:07:37.018Z,9.6
2023-04-01T04:08:53.311Z,9.6
2023-04-01T04:10:09.615Z,9.6
2023-04-01T04:11:25.899Z,9.6
2023-04-01T04:12:42.202Z,9.6
2023-04-01T04:13:58.484Z,9.6
2023-04-01T04:15:13.802Z,9.6
2023-04-01T04:16:30.098Z,9.5
2023-04-01T04:17:46.386Z,9.5
2023-04-01T04:19:02.635Z,9.5
2023-04-01T04:20:18.882Z,9.5
2023-04-01T04:21:35.125Z,9.6
2023-04-01T04:22:51.366Z,9.5
2023-04-01T04:24:07.599Z,9.5
2023-04-01T04:25:23.846Z,9.5
2023-04-01T04:26:40.091Z,9.5
2023-04-01T04:29:12.581Z,9.5
2023-04-01T04:30:28.825Z,9.5
2023-04-01T04:31:44.081Z,9.5
2023-04-01T04:33:00.325Z,9.5
2023-04-01T04:34:16.554Z,9.5
2023-04-01T04:35:32.793Z,9.5
2023-04-01T04:36:49.036Z,9.5
2023-04-01T04:38:05.274Z,9.5
2023-04-01T04:39:21.522Z,9.4
2023-04-01T04:40:37.759Z,9.5
2023-04-01T04:41:53.999Z,9.5
2023-04-01T04:43:10.245Z,9.5
2023-04-01T04:44:26.482Z,9.5
2023-04-01T04:45:42.728Z,9.5
2023-04-01T04:46:58.956Z,9.4
2023-04-01T04:48:14.215Z,9.5
2023-04-01T04:49:30.455Z,9.5
2023-04-01T04:50:46.696Z,9.5
2023-04-01T04:52:02.946Z,9.4
2023-04-01T04:53:19.168Z,9.4
2023-04-01T04:54:35.408Z,9.5
2023-04-01T04:55:51.649Z,9.4
2023-04-01T04:57:07.893Z,9.5
2023-04-01T04:58:24.130Z,9.4
2023-04-01T04:59:40.384Z,9.5
2023-04-01T05:00:56.611Z,9.5
2023-04-01T05:02:12.859Z,9.4
2023-04-01T05:03:29.101Z,9.4
2023-04-01T05:04:44.344Z,9.4
2023-04-01T05:06:00.589Z,9.4
2023-04-01T05:07:16.838Z,9.5
2023-04-01T05:08:33.064Z,9.5
2023-04-01T05:09:49.322Z,9.5
2023-04-01T05:11:05.560Z,9.5
2023-04-01T05:12:20.817Z,9.5
2023-04-01T05:13:37.056Z,9.5
2023-04-01T05:14:53.293Z,9.4
2023-04-01T05:16:09.544Z,9.5
2023-04-01T05:17:25.781Z,9.4
2023-04-01T05:18:42.020Z,9.4
2023-04-01T05:19:58.250Z,9.4
2023-04-01T05:21:14.497Z,9.4
2023-04-01T05:22:30.733Z,9.5
2023-04-01T05:23:46.968Z,9.4
2023-04-01T05:25:03.218Z,9.4
2023-04-01T05:26:19.467Z,9.4
2023-04-01T05:27:35.687Z,9.4
2023-04-01T05:28:50.962Z,9.4
2023-04-01T05:30:07.188Z,9.4
2023-04-01T05:31:23.433Z,9.4
2023-04-01T05:32:39.670Z,9.4
2023-04-01T05:33:55.915Z,9.5
2023-04-01T05:35:12.156Z,9.5
2023-04-01T05:36:28.385Z,9.4
2023-04-01T05:37:44.646Z,9.4
2023-04-01T05:39:00.864Z,9.4
2023-04-01T05:40:17.113Z,9.4
2023-04-01T05:41:33.352Z,9.4
2023-04-01T05:42:49.586Z,9.4
2023-04-01T05:44:05.837Z,9.4
2023-04-01T05:45:21.088Z,9.5
2023-04-01T05:46:37.329Z,9.5
2023-04-01T05:47:53.573Z,9.5
2023-04-01T05:49:09.809Z,9.5
2023-04-01T05:50:26.055Z,9.5
2023-04-01T05:51:42.286Z,9.5
2023-04-01T05:52:58.538Z,9.6
2023-04-01T05:54:14.784Z,9.6
2023-04-01T05:55:31.018Z,9.6
2023-04-01T05:56:47.263Z,9.6
2023-04-01T05:58:03.495Z,9.6
2023-04-01T06:00:35.973Z,9.6
2023-04-01T06:01:51.230Z,9.6
2023-04-01T06:03:07.476Z,9.6
2023-04-01T06:04:23.708Z,9.7
2023-04-01T06:05:39.952Z,9.6
2023-04-01T06:06:56.183Z,9.7
2023-04-01T06:08:12.428Z,9.7
2023-04-01T06:09:28.667Z,9.7
2023-04-01T06:10:44.916Z,9.7
2023-04-01T06:12:01.152Z,9.7
2023-04-01T06:13:17.400Z,9.8
2023-04-01T06:14:33.629Z,9.8
2023-04-01T06:15:49.869Z,9.8
2023-04-01T06:17:06.106Z,9.8
2023-04-01T06:18:21.367Z,9.8
2023-04-01T06:19:37.612Z,9.8
2023-04-01T06:20:53.846Z,9.9
2023-04-01T06:22:10.081Z,9.8
2023-04-01T06:23:26.324Z,9.9
2023-04-01T06:24:42.564Z,10
2023-04-01T06:25:58.822Z,9.9
2023-04-01T06:27:15.040Z,9.9
2023-04-01T06:28:31.292Z,10
2023-04-01T06:29:47.532Z,10
2023-04-01T06:31:03.779Z,10
2023-04-01T06:32:20.000Z,10
2023-04-01T06:33:36.240Z,10
2023-04-01T06:34:51.500Z,10.1
2023-04-01T06:36:07.742Z,10.1
2023-04-01T06:37:23.984Z,10.1
2023-04-01T06:38:40.225Z,10.2
2023-04-01T06:39:56.460Z,10.2
2023-04-01T06:41:12.696Z,10.1
2023-04-01T06:42:28.951Z,10.2
2023-04-01T06:43:45.189Z,10.1
2023-04-01T06:45:01.426Z,10.2
2023-04-01T06:46:17.663Z,10.2
2023-04-01T06:47:33.910Z,10.2
2023-04-01T06:48:50.145Z,10.2
2023-04-01T06:50:06.386Z,10.3
2023-04-01T06:51:21.634Z,10.3
2023-04-01T06:52:37.886Z,10.3
2023-04-01T06:53:54.128Z,10.4
2023-04-01T06:55:10.360Z,10.4
2023-04-01T06:56:26.599Z,10.4
2023-04-01T06:57:42.845Z,10.5
2023-04-01T06:58:59.080Z,10.5
2023-04-01T07:00:15.324Z,10.6
2023-04-01T07:01:31.554Z,10.6
2023-04-01T07:02:47.804Z,10.5
2023-04-01T07:04:04.049Z,10.6
2023-04-01T07:05:20.280Z,10.6
2023-04-01T07:06:36.523Z,10.7
2023-04-01T07:07:51.771Z,10.6
2023-04-01T07:09:08.018Z,10.6
2023-04-01T07:10:24.260Z,10.6
2023-04-01T07:11:40.507Z,10.6
2023-04-01T07:12:56.733Z,10.7
2023-04-01T07:14:12.981Z,10.6
2023-04-01T07:15:29.209Z,10.7
2023-04-01T07:16:45.470Z,10.7
2023-04-01T07:18:01.700Z,10.8
2023-04-01T07:19:17.935Z,10.8
2023-04-01T07:20:34.176Z,10.8
2023-04-01T07:21:50.417Z,10.8
2023-04-01T07:23:06.662Z,10.9
2023-04-01T07:24:21.924Z,10.9
2023-04-01T07:25:38.151Z,10.9
2023-04-01T07:26:54.404Z,10.9
2023-04-01T07:28:10.633Z,10.9
2023-04-01T07:29:26.865Z,10.9
2023-04-01T07:30:43.112Z,11
2023-04-01T07:31:59.357Z,11
2023-04-01T07:33:15.589Z,11
2023-04-01T07:34:31.836Z,11
2023-04-01T07:35:48.069Z,11
2023-04-01T07:37:04.314Z,11
2023-04-01T07:38:20.553Z,11
2023-04-01T07:39:36.788Z,11
2023-04-01T07:40:52.051Z,11
2023-04-01T07:42:08.299Z,11.1
2023-04-01T07:43:24.529Z,11.1
2023-04-01T07:44:40.771Z,11.1
2023-04-01T07:45:57.014Z,11
2023-04-01T07:47:13.248Z,11.1
2023-04-01T07:48:29.484Z,11.1
2023-04-01T07:49:45.725Z,11.1
2023-04-01T07:51:01.975Z,11.1
2023-04-01T07:52:18.209Z,11.1
2023-04-01T07:53:34.461Z,11.1
2023-04-01T07:54:50.692Z,11.1
2023-04-01T07:56:06.929Z,11.1
2023-04-01T07:57:22.193Z,11.1
2023-04-01T07:58:38.429Z,11.1
2023-04-01T07:59:54.667Z,11.1
2023-04-01T08:01:10.919Z,11.1
2023-04-01T08:02:27.142Z,11.1
2023-04-01T08:03:43.386Z,11.1
2023-04-01T08:04:59.627Z,11.1
2023-04-01T08:06:15.863Z,11.1
2023-04-01T08:07:32.113Z,11.1
2023-04-01T08:08:48.356Z,11.1
2023-04-01T08:10:04.579Z,11.1
2023-04-01T08:11:20.817Z,11.1
2023-04-01T08:12:37.055Z,11.1
2023-04-01T08:13:52.323Z,11.1
2023-04-01T08:15:08.566Z,11.1
2023-04-01T08:17:41.045Z,11.3
2023-04-01T08:18:57.291Z,11.3
2023-04-01T08:20:13.531Z,11.3
2023-04-01T08:21:29.760Z,11.3
2023-04-01T08:22:45.995Z,11.3
2023-04-01T08:24:02.242Z,11.4
2023-04-01T08:25:18.482Z,11.4
2023-04-01T08:26:34.722Z,11.4
2023-04-01T08:27:50.967Z,11.5
2023-04-01T08:29:07.208Z,11.5
2023-04-01T08:30:22.457Z,11.5
2023-04-01T08:31:38.704Z,11.5
2023-04-01T08:32:54.938Z,11.6
2023-04-01T08:34:11.174Z,11.6
2023-04-01T08:35:27.419Z,11.6
2023-04-01T08:36:43.659Z,11.6
2023-04-01T08:37:59.904Z,11.5
2023-04-01T08:39:16.137Z,11.6
2023-04-01T08:40:32.379Z,11.5
2023-04-01T08:41:48.607Z,11.6
2023-04-01T08:43:04.865Z,11.6
2023-04-01T08:44:21.112Z,11.6
2023-04-01T08:45:37.334Z,11.6
2023-04-01T08:46:52.602Z,11.6
2023-04-01T08:48:08.833Z,11.5
2023-04-01T08:49:25.064Z,11.4
2023-04-01T08:50:41.320Z,11.5
2023-04-01T08:51:57.555Z,11.5
2023-04-01T08:53:13.789Z,11.5
2023-04-01T08:54:30.045Z,11.5
2023-04-01T08:55:46.269Z,11.5
2023-04-01T08:57:02.501Z,11.4
2023-04-01T08:58:18.758Z,11.5
2023-04-01T08:59:34.983Z,11.5
2023-04-01T09:00:51.245Z,11.4
2023-04-01T09:02:07.472Z,11.4
2023-04-01T09:03:22.732Z,11.5
2023-04-01T09:04:38.958Z,11.5
2023-04-01T09:05:55.212Z,11.5
2023-04-01T09:07:11.448Z,11.5
2023-04-01T09:08:27.677Z,11.5
2023-04-01T09:09:43.936Z,11.5
2023-04-01T09:11:00.172Z,11.5
2023-04-01T09:12:16.402Z,11.6
2023-04-01T09:13:32.640Z,11.6
2023-04-01T09:14:48.899Z,11.5
2023-04-01T09:16:05.129Z,11.5
2023-04-01T09:17:21.371Z,11.6
2023-04-01T09:18:37.602Z,11.7
2023-04-01T09:19:52.863Z,11.7
2023-04-01T09:21:09.112Z,11.7
2023-04-01T09:22:25.357Z,11.8
2023-04-01T09:23:41.572Z,11.9
2023-04-01T09:24:57.816Z,11.9
2023-04-01T09:26:14.054Z,11.9
2023-04-01T09:27:29.320Z,11.9
2023-04-01T09:28:45.562Z,11.9
2023-04-01T09:30:01.820Z,11.9
2023-04-01T09:31:18.051Z,11.9
2023-04-01T09:32:34.281Z,11.9
2023-04-01T09:33:50.523Z,12
2023-04-01T09:35:06.763Z,11.9
2023-04-01T09:36:23.009Z,12
2023-04-01T09:37:39.238Z,12
2023-04-01T09:38:55.481Z,12
2023-04-01T09:40:11.725Z,11.9
2023-04-01T09:41:27.977Z,12
2023-04-01T09:42:44.211Z,12
2023-04-01T09:43:59.457Z,12.1
2023-04-01T09:45:15.714Z,12.1
2023-04-01T09:46:31.937Z,12.1
2023-04-01T09:47:48.177Z,12.1
2023-04-01T09:49:04.414Z,12.1
2023-04-01T09:50:20.660Z,12
2023-04-01T09:51:36.900Z,12
2023-04-01T09:52:53.132Z,12
2023-04-01T09:54:09.385Z,12
2023-04-01T09:55:25.610Z,12.1
2023-04-01T09:56:41.859Z,12
2023-04-01T09:57:58.104Z,11.9
2023-04-01T09:59:14.337Z,11.9
2023-04-01T10:00:29.587Z,12
2023-04-01T10:01:45.852Z,12
2023-04-01T10:03:02.069Z,12
2023-04-01T10:04:18.316Z,12
2023-04-01T10:05:34.550Z,11.9
2023-04-01T10:06:50.802Z,12
2023-04-01T10:08:07.042Z,12
2023-04-01T10:09:23.279Z,12
2023-04-01T10:10:39.510Z,12
2023-04-01T10:11:55.750Z,12
2023-04-01T10:13:12.001Z,12
2023-04-01T10:14:28.235Z,12
2023-04-01T10:15:44.469Z,12
2023-04-01T10:16:59.731Z,12.1
2023-04-01T10:18:15.976Z,12
2023-04-01T10:19:32.221Z,12
2023-04-01T10:20:48.456Z,12
2023-04-01T10:22:04.692Z,12
2023-04-01T10:23:20.926Z,12
2023-04-01T10:24:37.172Z,11.9
2023-04-01T10:25:53.413Z,11.9
2023-04-01T10:27:09.660Z,11.9
2023-04-01T10:28:25.888Z,11.9
2023-04-01T10:29:42.124Z,11.9
2023-04-01T10:30:58.361Z,11.8
2023-04-01T10:32:14.602Z,11.8
2023-04-01T10:33:29.869Z,11.9
2023-04-01T10:34:46.097Z,11.9
2023-04-01T10:36:02.332Z,11.9
2023-04-01T10:37:18.588Z,11.9
2023-04-01T10:38:34.816Z,11.8
2023-04-01T10:39:51.060Z,11.9
2023-04-01T10:41:07.312Z,11.9
2023-04-01T10:42:23.537Z,11.9
2023-04-01T10:44:56.041Z,12
2023-04-01T10:46:12.264Z,12
2023-04-01T10:47:28.503Z,12.1
2023-04-01T10:50:00.985Z,12.2
2023-04-01T10:51:16.235Z,12.2
2023-04-01T10:52:32.467Z,12.2
2023-04-01T10:53:48.718Z,12.2
2023-04-01T10:55:04.949Z,12.1
2023-04-01T10:56:21.203Z,12.1
2023-04-01T10:57:37.447Z,12
2023-04-01T10:58:53.677Z,11.9
2023-04-01T11:00:09.928Z,11.9
2023-04-01T11:01:26.159Z,11.9
2023-04-01T11:02:42.400Z,11.9
2023-04-01T11:03:58.634Z,11.9
2023-04-01T11:05:14.877Z,11.9
2023-04-01T11:06:31.108Z,12
2023-04-01T11:07:46.377Z,12
2023-04-01T11:09:02.605Z,12
2023-04-01T11:10:18.854Z,12.1
2023-04-01T11:11:35.098Z,12.1
2023-04-01T11:12:51.349Z,12.2
2023-04-01T11:14:07.579Z,12.2
2023-04-01T11:15:23.808Z,12.1
2023-04-01T11:16:40.041Z,12.2
2023-04-01T11:17:56.286Z,12.2
2023-04-01T11:19:12.527Z,12.2
2023-04-01T11:20:28.763Z,12.2
2023-04-01T11:21:45.013Z,12.2
2023-04-01T11:23:01.251Z,12.3
2023-04-01T11:24:16.513Z,12.3
2023-04-01T11:25:32.753Z,12.4
2023-04-01T11:26:48.986Z,12.5
2023-04-01T11:28:05.238Z,12.6
2023-04-01T11:29:21.470Z,12.7
2023-04-01T11:30:37.723Z,12.7
2023-04-01T11:31:53.950Z,12.9
2023-04-01T11:33:10.186Z,12.9
2023-04-01T11:34:26.426Z,13
2023-04-01T11:35:42.669Z,13.1
2023-04-01T11:36:58.907Z,13.2
2023-04-01T11:38:15.153Z,13.3
2023-04-01T11:39:31.376Z,13.3
2023-04-01T11:40:46.648Z,13.4
2023-04-01T11:42:02.891Z,13.5
2023-04-01T11:43:19.129Z,13.5
2023-04-01T11:44:35.367Z,13.6
2023-04-01T11:45:51.609Z,13.5
2023-04-01T11:47:07.857Z,13.5
2023-04-01T11:48:24.070Z,13.4
2023-04-01T11:49:40.313Z,13.2
2023-04-01T11:50:56.560Z,13
2023-04-01T11:52:12.804Z,12.9
2023-04-01T11:53:29.050Z,12.9
2023-04-01T11:54:45.270Z,12.9
2023-04-01T11:56:01.523Z,12.8
2023-04-01T11:57:16.785Z,12.7
2023-04-01T11:58:33.021Z,12.7
2023-04-01T11:59:49.244Z,12.7
2023-04-01T12:01:05.512Z,12.6
2023-04-01T12:02:21.727Z,12.6
2023-04-01T12:03:37.970Z,12.7
2023-04-01T12:04:54.214Z,12.7
2023-04-01T12:06:10.452Z,12.7
2023-04-01T12:07:26.698Z,12.8
2023-04-01T12:08:42.941Z,12.8
2023-04-01T12:09:59.173Z,12.8
2023-04-01T12:11:15.420Z,12.8
2023-04-01T12:12:31.660Z,12.8
2023-04-01T12:13:46.902Z,12.8
2023-04-01T12:15:03.154Z,12.8
2023-04-01T12:16:19.401Z,12.9
2023-04-01T12:17:35.639Z,12.8
2023-04-01T12:18:51.862Z,12.6
2023-04-01T12:20:08.118Z,12.6
2023-04-01T12:21:24.347Z,12.6
2023-04-01T12:22:40.593Z,12.6
2023-04-01T12:23:56.832Z,12.5
2023-04-01T12:25:13.068Z,12.5
2023-04-01T12:26:29.313Z,12.4
2023-04-01T12:27:45.556Z,12.5
2023-04-01T12:29:01.794Z,12.5
2023-04-01T12:30:17.042Z,12.4
2023-04-01T12:31:33.293Z,12.5
2023-04-01T12:32:49.526Z,12.4
2023-04-01T12:34:05.766Z,12.4
2023-04-01T12:35:22.010Z,12.3
2023-04-01T12:36:38.258Z,12.3
2023-04-01T12:37:54.480Z,12.2
2023-04-01T12:39:10.727Z,12.3
2023-04-01T12:40:26.961Z,12.3
2023-04-01T12:41:43.200Z,12.2
2023-04-01T12:42:59.449Z,12.2
2023-04-01T12:44:15.705Z,12.2
2023-04-01T12:45:31.921Z,12.2
2023-04-01T12:46:47.185Z,12.2
2023-04-01T12:48:03.429Z,12.2
2023-04-01T12:49:19.662Z,12.2
2023-04-01T12:50:35.896Z,12.3
2023-04-01T12:51:52.150Z,12.3
2023-04-01T12:53:08.385Z,12.3
2023-04-01T12:54:24.634Z,12.3
2023-04-01T12:55:40.869Z,12.3
2023-04-01T12:56:57.102Z,12.3
2023-04-01T12:58:13.349Z,12.4
2023-04-01T12:59:29.598Z,12.4
2023-04-01T13:00:45.810Z,12.5
2023-04-01T13:02:02.067Z,12.5
2023-04-01T13:03:17.314Z,12.5
2023-04-01T13:04:33.559Z,12.5
2023-04-01T13:05:49.796Z,12.6
2023-04-01T13:07:06.027Z,12.6
2023-04-01T13:08:22.269Z,12.7
2023-04-01T13:09:38.532Z,12.7
2023-04-01T13:10:54.758Z,12.7
2023-04-01T13:12:10.992Z,12.7
2023-04-01T13:13:27.241Z,12.8
2023-04-01T13:14:43.475Z,12.8
2023-04-01T13:15:59.707Z,12.9
2023-04-01T13:17:15.961Z,13
2023-04-01T13:18:32.191Z,13
2023-04-01T13:19:47.447Z,13.1
2023-04-01T13:21:03.698Z,13.1
2023-04-01T13:22:19.939Z,13.1
2023-04-01T13:23:36.175Z,13.1
2023-04-01T13:24:52.399Z,13.2
2023-04-01T13:26:08.657Z,13.2
2023-04-01T13:27:24.881Z,13.1
2023-04-01T13:28:41.143Z,13.1
2023-04-01T13:29:57.360Z,13.1
2023-04-01T13:31:13.599Z,13.1
2023-04-01T13:32:29.852Z,13
2023-04-01T13:33:46.097Z,13
2023-04-01T13:35:02.323Z,13
2023-04-01T13:36:17.581Z,13.1
2023-04-01T13:37:33.817Z,13
2023-04-01T13:38:50.072Z,13
2023-04-01T13:40:06.309Z,13
2023-04-01T13:41:22.543Z,13
2023-04-01T13:42:37.800Z,13
2023-04-01T13:43:54.035Z,13
2023-04-01T13:45:10.291Z,12.9
2023-04-01T13:46:26.524Z,12.9
2023-04-01T13:47:42.766Z,12.7
2023-04-01T13:48:59.016Z,12.7
2023-04-01T13:50:15.247Z,12.7
2023-04-01T13:51:31.480Z,12.6
2023-04-01T13:52:47.729Z,12.6
2023-04-01T13:54:03.969Z,12.6
2023-04-01T13:55:20.222Z,12.6
2023-04-01T13:56:36.461Z,12.6
2023-04-01T13:57:52.692Z,12.6
2023-04-01T13:59:07.940Z,12.6
2023-04-01T14:00:24.170Z,12.6
2023-04-01T14:01:40.423Z,12.6
2023-04-01T14:02:56.647Z,12.6
2023-04-01T14:04:12.915Z,12.6
2023-04-01T14:05:29.132Z,12.6
2023-04-01T14:06:45.370Z,12.6
2023-04-01T14:08:01.615Z,12.5
2023-04-01T14:09:17.863Z,12.5
2023-04-01T14:10:34.113Z,12.5
2023-04-01T14:11:50.335Z,12.5
2023-04-01T14:13:06.596Z,12.4
2023-04-01T14:14:22.821Z,12.4
2023-04-01T14:15:38.094Z,12.3
2023-04-01T14:16:54.327Z,12.4
2023-04-01T14:18:10.564Z,12.3
2023-04-01T14:19:26.000Z,12.3
2023-04-01T14:20:43.037Z,12.2
2023-04-01T14:21:59.273Z,12.2
2023-04-01T14:23:15.516Z,12.1
2023-04-01T14:24:31.758Z,12.1
2023-04-01T14:25:47.996Z,12.1
2023-04-01T14:27:04.232Z,12.1
2023-04-01T14:28:20.487Z,12
2023-04-01T14:29:36.706Z,12
2023-04-01T14:30:52.948Z,12
2023-04-01T14:32:08.202Z,12
2023-04-01T14:33:24.445Z,12
2023-04-01T14:34:40.693Z,11.9
2023-04-01T14:35:56.924Z,12
2023-04-01T14:37:13.177Z,12
2023-04-01T14:38:29.411Z,12
2023-04-01T14:39:45.643Z,12
2023-04-01T14:41:01.890Z,12
2023-04-01T14:42:18.138Z,12
2023-04-01T14:43:34.384Z,12
2023-04-01T14:44:50.610Z,12.1
2023-04-01T14:46:06.851Z,12.1
2023-04-01T14:47:23.077Z,12.1
2023-04-01T14:48:38.332Z,12.1
2023-04-01T14:49:54.583Z,12
2023-04-01T14:51:10.824Z,12
2023-04-01T14:52:27.067Z,12
2023-04-01T14:53:43.309Z,12
2023-04-01T14:54:59.555Z,11.9
2023-04-01T14:56:15.781Z,11.9
2023-04-01T14:57:32.027Z,11.9
2023-04-01T14:58:48.271Z,11.9
2023-04-01T15:00:04.490Z,11.8
2023-04-01T15:01:20.733Z,11.8
2023-04-01T15:02:36.970Z,11.9
2023-04-01T15:03:53.208Z,11.8
2023-04-01T15:05:08.480Z,11.9
2023-04-01T15:06:24.738Z,11.9
2023-04-01T15:07:40.970Z,11.9
2023-04-01T15:08:57.191Z,11.9
2023-04-01T15:10:13.436Z,11.9
2023-04-01T15:11:29.684Z,11.8
2023-04-01T15:12:45.934Z,11.9
2023-04-01T15:14:02.167Z,11.8
2023-04-01T15:15:18.393Z,11.9
2023-04-01T15:16:34.649Z,11.9
2023-04-01T15:17:50.880Z,11.8
2023-04-01T15:19:07.117Z,11.8
2023-04-01T15:20:23.354Z,11.9
2023-04-01T15:21:38.629Z,11.9
2023-04-01T15:22:54.857Z,11.9
2023-04-01T15:24:11.096Z,11.9
2023-04-01T15:25:27.336Z,11.9
2023-04-01T15:26:43.559Z,11.9
2023-04-01T15:27:59.812Z,11.9
2023-04-01T15:29:16.058Z,11.9
2023-04-01T15:30:32.291Z,12
2023-04-01T15:31:48.520Z,12
2023-04-01T15:33:04.787Z,11.9
2023-04-01T15:34:21.011Z,12
2023-04-01T15:35:37.238Z,11.9
2023-04-01T15:36:53.487Z,11.9
2023-04-01T15:38:08.737Z,11.9
2023-04-01T15:39:24.999Z,12
2023-04-01T15:40:41.221Z,11.9
2023-04-01T15:41:57.472Z,11.9
2023-04-01T15:43:13.708Z,12
2023-04-01T15:44:29.934Z,11.9
2023-04-01T15:45:46.180Z,11.9
2023-04-01T15:47:02.000Z,11.9
2023-04-01T15:48:18.669Z,11.9
2023-04-01T15:49:34.896Z,11.9
2023-04-01T15:50:51.152Z,11.9
2023-04-01T15:52:07.382Z,11.9
2023-04-01T15:53:23.626Z,11.9
2023-04-01T15:54:38.888Z,11.9
2023-04-01T15:55:55.110Z,11.9
2023-04-01T15:57:11.376Z,11.9
2023-04-01T15:58:27.610Z,11.8
2023-04-01T15:59:43.845Z,11.9
2023-04-01T16:01:00.098Z,11.9
2023-04-01T16:02:16.308Z,11.9
2023-04-01T16:03:32.546Z,11.8
2023-04-01T16:04:48.788Z,11.8
2023-04-01T16:06:05.042Z,11.8
2023-04-01T16:07:21.282Z,11.8
2023-04-01T16:08:37.505Z,11.8
2023-04-01T16:09:53.754Z,11.7
2023-04-01T16:11:09.024Z,11.8
2023-04-01T16:12:25.263Z,11.7
2023-04-01T16:13:41.487Z,11.7
2023-04-01T16:14:57.754Z,11.6
2023-04-01T16:16:13.963Z,11.6
2023-04-01T16:17:30.229Z,11.6
2023-04-01T16:18:46.465Z,11.6
2023-04-01T16:20:02.698Z,11.6
2023-04-01T16:21:18.955Z,11.6
2023-04-01T16:22:35.179Z,11.6
2023-04-01T16:23:51.416Z,11.6
2023-04-01T16:25:07.649Z,11.5
2023-04-01T16:26:23.905Z,11.5
2023-04-01T16:27:39.163Z,11.5
2023-04-01T16:28:55.386Z,11.4
2023-04-01T16:30:11.620Z,11.4
2023-04-01T16:31:27.884Z,11.4
2023-04-01T16:32:44.113Z,11.4
2023-04-01T16:34:00.353Z,11.4
2023-04-01T16:35:16.591Z,11.4
2023-04-01T16:36:32.824Z,11.4
2023-04-01T16:37:49.062Z,11.4
2023-04-01T16:39:05.299Z,11.3
2023-04-01T16:40:21.544Z,11.3
2023-04-01T16:41:37.803Z,11.3
2023-04-01T16:42:54.043Z,11.3
2023-04-01T16:44:10.258Z,11.3
2023-04-01T16:45:25.533Z,11.2
2023-04-01T16:46:41.769Z,11.2
2023-04-01T16:47:58.016Z,11.2
2023-04-01T16:49:14.239Z,11.2
2023-04-01T16:50:30.509Z,11.2
2023-04-01T16:51:46.714Z,11.2
2023-04-01T16:53:02.967Z,11.2
2023-04-01T16:54:19.190Z,11.2
2023-04-01T16:55:35.446Z,11.2
2023-04-01T16:56:51.696Z,11.2
2023-04-01T16:58:07.913Z,11.2
2023-04-01T16:59:24.168Z,11.2
2023-04-01T17:00:40.415Z,11.2
2023-04-01T17:01:55.647Z,11.2
2023-04-01T17:03:11.898Z,11.2
2023-04-01T17:04:28.150Z,11.2
2023-04-01T17:05:44.383Z,11.2
2023-04-01T17:07:00.634Z,11.1
2023-04-01T17:08:16.863Z,11.1
2023-04-01T17:09:33.093Z,11.1
2023-04-01T17:10:49.336Z,11.1
2023-04-01T17:12:05.584Z,11.1
2023-04-01T17:13:21.813Z,11.1
2023-04-01T17:14:38.064Z,11.1
2023-04-01T17:15:54.319Z,11.1
2023-04-01T17:17:10.545Z,11.1
2023-04-01T17:18:25.790Z,11.1
2023-04-01T17:19:42.022Z,11
2023-04-01T17:20:58.286Z,11